sensor_id;sensor_type;location;lat;lon;timestamp;pressure;altitude;pressure_sealevel;temperature;humidity
33404;BME280;19751;40.274;18.268;2023-03-21T00:01:31;101182.44;;;13.34;100.00
33404;BME280;19751;40.274;18.268;2023-03-21T00:03:57;101177.03;;;13.34;100.00
33404;BME280;19751;40.274;18.268;2023-03-21T00:06:22;101166.19;;;13.34;100.00
33404;BME280;19751;40.274;18.268;2023-03-21T00:08:48;101167.91;;;13.35;100.00
33404;BME280;19751;40.274;18.268;2023-03-21T00:11:14;101155.38;;;13.34;100.00
33404;BME280;19751;40.274;18.268;2023-03-21T00:13:40;101147.25;;;13.34;100.00
33404;BME280;19751;40.274;18.268;2023-03-21T00:16:10;101152.06;;;13.32;100.00
33404;BME280;19751;40.274;18.268;2023-03-21T00:18:40;101144.56;;;13.34;100.00
33404;BME280;19751;40.274;18.268;2023-03-21T00:21:06;101148.31;;;13.33;100.00
33404;BME280;19751;40.274;18.268;2023-03-21T00:23:33;101142.00;;;13.26;100.00
33404;BME280;19751;40.274;18.268;2023-03-21T00:26:00;101146.97;;;13.23;100.00
33404;BME280;19751;40.274;18.268;2023-03-21T00:28:25;101157.78;;;13.23;100.00
33404;BME280;19751;40.274;18.268;2023-03-21T00:30:56;101155.53;;;13.26;100.00
33404;BME280;19751;40.274;18.268;2023-03-21T00:33:22;101154.75;;;13.32;100.00
33404;BME280;19751;40.274;18.268;2023-03-21T00:35:49;101160.78;;;13.34;100.00
33404;BME280;19751;40.274;18.268;2023-03-21T00:38:17;101164.16;;;13.36;100.00
33404;BME280;19751;40.274;18.268;2023-03-21T00:40:42;101167.03;;;13.35;100.00
33404;BME280;19751;40.274;18.268;2023-03-21T00:43:08;101175.16;;;13.35;100.00
33404;BME280;19751;40.274;18.268;2023-03-21T00:45:34;101168.91;;;13.34;100.00
33404;BME280;19751;40.274;18.268;2023-03-21T00:47:59;101178.28;;;13.32;100.00
33404;BME280;19751;40.274;18.268;2023-03-21T00:50:24;101180.53;;;13.28;100.00
33404;BME280;19751;40.274;18.268;2023-03-21T00:52:50;101177.16;;;13.26;100.00
33404;BME280;19751;40.274;18.268;2023-03-21T00:55:17;101183.34;;;13.20;100.00
33404;BME280;19751;40.274;18.268;2023-03-21T00:57:43;101179.38;;;13.16;100.00
33404;BME280;19751;40.274;18.268;2023-03-21T01:00:11;101178.06;;;13.12;100.00
33404;BME280;19751;40.274;18.268;2023-03-21T01:02:37;101191.78;;;13.10;100.00
33404;BME280;19751;40.274;18.268;2023-03-21T01:05:08;101190.78;;;13.11;100.00
33404;BME280;19751;40.274;18.268;2023-03-21T01:07:35;101196.34;;;13.10;100.00
33404;BME280;19751;40.274;18.268;2023-03-21T01:10:01;101201.75;;;13.10;100.00
33404;BME280;19751;40.274;18.268;2023-03-21T01:12:26;101207.16;;;13.10;100.00
33404;BME280;19751;40.274;18.268;2023-03-21T01:14:52;101200.31;;;13.07;100.00
33404;BME280;19751;40.274;18.268;2023-03-21T01:17:18;101203.00;;;13.07;100.00
33404;BME280;19751;40.274;18.268;2023-03-21T01:19:43;101199.66;;;13.05;100.00
33404;BME280;19751;40.274;18.268;2023-03-21T01:22:10;101196.50;;;13.02;100.00
33404;BME280;19751;40.274;18.268;2023-03-21T01:24:35;101190.44;;;13.00;100.00
33404;BME280;19751;40.274;18.268;2023-03-21T01:27:01;101187.97;;;12.98;100.00
33404;BME280;19751;40.274;18.268;2023-03-21T01:29:27;101191.03;;;12.95;100.00
33404;BME280;19751;40.274;18.268;2023-03-21T01:31:53;101177.53;;;12.95;100.00
33404;BME280;19751;40.274;18.268;2023-03-21T01:34:20;101173.53;;;12.91;100.00
33404;BME280;19751;40.274;18.268;2023-03-21T01:36:45;101178.56;;;12.94;100.00
33404;BME280;19751;40.274;18.268;2023-03-21T01:39:11;101173.78;;;12.96;100.00
33404;BME280;19751;40.274;18.268;2023-03-21T01:41:38;101168.81;;;13.00;100.00
33404;BME280;19751;40.274;18.268;2023-03-21T01:44:05;101175.91;;;13.01;100.00
33404;BME280;19751;40.274;18.268;2023-03-21T01:46:33;101163.41;;;13.00;100.00
33404;BME280;19751;40.274;18.268;2023-03-21T01:49:07;101157.63;;;13.03;100.00
33404;BME280;19751;40.274;18.268;2023-03-21T01:51:38;101150.34;;;13.03;100.00
33404;BME280;19751;40.274;18.268;2023-03-21T01:54:07;101143.69;;;13.06;100.00
33404;BME280;19751;40.274;18.268;2023-03-21T01:56:37;101136.22;;;13.08;100.00
33404;BME280;19751;40.274;18.268;2023-03-21T01:59:18;101136.84;;;13.10;100.00
33404;BME280;19751;40.274;18.268;2023-03-21T02:01:47;101135.19;;;13.09;100.00
33404;BME280;19751;40.274;18.268;2023-03-21T02:04:13;101131.44;;;13.10;100.00
33404;BME280;19751;40.274;18.268;2023-03-21T02:09:29;101118.34;;;13.07;100.00
33404;BME280;19751;40.274;18.268;2023-03-21T02:11:57;101102.13;;;13.07;100.00
33404;BME280;19751;40.274;18.268;2023-03-21T02:14:22;101102.50;;;13.04;100.00
33404;BME280;19751;40.274;18.268;2023-03-21T02:17:02;101096.06;;;13.05;100.00
33404;BME280;19751;40.274;18.268;2023-03-21T02:20:26;101096.50;;;13.08;100.00
33404;BME280;19751;40.274;18.268;2023-03-21T02:28:27;101076.13;;;13.12;100.00
33404;BME280;19751;40.274;18.268;2023-03-21T02:31:12;101078.19;;;13.10;100.00
33404;BME280;19751;40.274;18.268;2023-03-21T02:42:29;101075.81;;;12.94;100.00
33404;BME280;19751;40.274;18.268;2023-03-21T02:45:10;101078.91;;;12.91;100.00
33404;BME280;19751;40.274;18.268;2023-03-21T02:52:48;101070.19;;;12.96;100.00
33404;BME280;19751;40.274;18.268;2023-03-21T02:55:25;101060.41;;;12.94;100.00
33404;BME280;19751;40.274;18.268;2023-03-21T02:57:54;101052.03;;;12.89;100.00
33404;BME280;19751;40.274;18.268;2023-03-21T03:00:25;101052.47;;;12.86;100.00
33404;BME280;19751;40.274;18.268;2023-03-21T03:02:52;101046.16;;;12.79;100.00
33404;BME280;19751;40.274;18.268;2023-03-21T03:05:24;101054.41;;;12.71;100.00
33404;BME280;19751;40.274;18.268;2023-03-21T03:11:01;101047.94;;;12.65;100.00
33404;BME280;19751;40.274;18.268;2023-03-21T03:16:46;101058.41;;;12.75;100.00
33404;BME280;19751;40.274;18.268;2023-03-21T03:19:24;101051.78;;;12.78;100.00
33404;BME280;19751;40.274;18.268;2023-03-21T03:22:01;101051.78;;;12.78;100.00
33404;BME280;19751;40.274;18.268;2023-03-21T03:24:33;101051.56;;;12.79;100.00
33404;BME280;19751;40.274;18.268;2023-03-21T03:27:12;101045.50;;;12.77;100.00
33404;BME280;19751;40.274;18.268;2023-03-21T03:29:43;101044.06;;;12.75;100.00
33404;BME280;19751;40.274;18.268;2023-03-21T03:32:17;101046.97;;;12.73;100.00
33404;BME280;19751;40.274;18.268;2023-03-21T03:34:47;101052.53;;;12.72;100.00
33404;BME280;19751;40.274;18.268;2023-03-21T03:37:18;101040.50;;;12.74;100.00
33404;BME280;19751;40.274;18.268;2023-03-21T03:42:20;101032.66;;;12.79;100.00
33404;BME280;19751;40.274;18.268;2023-03-21T03:44:48;101028.91;;;12.80;100.00
33404;BME280;19751;40.274;18.268;2023-03-21T03:47:24;101021.84;;;12.79;100.00
33404;BME280;19751;40.274;18.268;2023-03-21T03:52:30;101017.25;;;12.80;100.00
33404;BME280;19751;40.274;18.268;2023-03-21T03:54:58;101014.75;;;12.78;100.00
33404;BME280;19751;40.274;18.268;2023-03-21T03:57:25;101025.97;;;12.75;100.00
33404;BME280;19751;40.274;18.268;2023-03-21T03:59:52;101022.38;;;12.68;100.00
33404;BME280;19751;40.274;18.268;2023-03-21T04:02:17;101028.75;;;12.60;100.00
33404;BME280;19751;40.274;18.268;2023-03-21T04:04:45;101029.41;;;12.62;100.00
33404;BME280;19751;40.274;18.268;2023-03-21T04:07:11;101021.09;;;12.64;100.00
33404;BME280;19751;40.274;18.268;2023-03-21T04:09:37;101020.50;;;12.68;100.00
33404;BME280;19751;40.274;18.268;2023-03-21T04:12:03;101023.66;;;12.72;100.00
33404;BME280;19751;40.274;18.268;2023-03-21T04:14:28;101014.91;;;12.70;100.00
33404;BME280;19751;40.274;18.268;2023-03-21T04:16:54;101007.56;;;12.64;100.00
33404;BME280;19751;40.274;18.268;2023-03-21T04:19:19;101015.81;;;12.56;100.00
33404;BME280;19751;40.274;18.268;2023-03-21T04:21:46;101015.81;;;12.56;100.00
33404;BME280;19751;40.274;18.268;2023-03-21T04:24:12;101013.41;;;12.61;100.00
33404;BME280;19751;40.274;18.268;2023-03-21T04:26:38;101008.63;;;12.63;100.00
33404;BME280;19751;40.274;18.268;2023-03-21T04:29:04;101010.28;;;12.64;100.00
33404;BME280;19751;40.274;18.268;2023-03-21T04:31:30;101005.31;;;12.67;100.00
33404;BME280;19751;40.274;18.268;2023-03-21T04:33:59;100981.81;;;12.68;100.00
33404;BME280;19751;40.274;18.268;2023-03-21T04:36:25;100975.81;;;12.66;100.00
33404;BME280;19751;40.274;18.268;2023-03-21T04:38:58;100976.56;;;12.60;100.00
33404;BME280;19751;40.274;18.268;2023-03-21T04:41:27;100977.59;;;12.59;100.00
33404;BME280;19751;40.274;18.268;2023-03-21T04:43:53;100977.59;;;12.59;100.00
33404;BME280;19751;40.274;18.268;2023-03-21T04:46:20;100982.38;;;12.57;100.00
33404;BME280;19751;40.274;18.268;2023-03-21T04:48:45;100982.56;;;12.55;100.00
33404;BME280;19751;40.274;18.268;2023-03-21T04:51:11;100978.81;;;12.56;100.00
33404;BME280;19751;40.274;18.268;2023-03-21T04:53:37;100970.47;;;12.51;100.00
33404;BME280;19751;40.274;18.268;2023-03-21T04:56:04;100979.56;;;12.43;100.00
33404;BME280;19751;40.274;18.268;2023-03-21T04:58:30;100983.69;;;12.39;100.00
33404;BME280;19751;40.274;18.268;2023-03-21T05:00:56;100983.50;;;12.41;100.00
33404;BME280;19751;40.274;18.268;2023-03-21T05:03:22;100982.25;;;12.43;100.00
33404;BME280;19751;40.274;18.268;2023-03-21T05:05:48;100973.31;;;12.43;100.00
33404;BME280;19751;40.274;18.268;2023-03-21T05:08:14;100981.84;;;12.40;100.00
33404;BME280;19751;40.274;18.268;2023-03-21T05:10:40;100989.09;;;12.39;100.00
33404;BME280;19751;40.274;18.268;2023-03-21T05:13:06;100986.22;;;12.41;100.00
33404;BME280;19751;40.274;18.268;2023-03-21T05:15:32;100996.44;;;12.46;100.00
33404;BME280;19751;40.274;18.268;2023-03-21T05:17:57;100991.25;;;12.51;100.00
33404;BME280;19751;40.274;18.268;2023-03-21T05:20:24;100994.22;;;12.56;100.00
33404;BME280;19751;40.274;18.268;2023-03-21T05:22:50;101003.59;;;12.60;100.00
33404;BME280;19751;40.274;18.268;2023-03-21T05:25:16;100998.19;;;12.60;100.00
33404;BME280;19751;40.274;18.268;2023-03-21T05:27:42;100985.94;;;12.57;100.00
33404;BME280;19751;40.274;18.268;2023-03-21T05:30:14;100973.63;;;12.55;100.00
33404;BME280;19751;40.274;18.268;2023-03-21T05:32:40;100969.44;;;12.52;100.00
33404;BME280;19751;40.274;18.268;2023-03-21T05:35:06;100970.69;;;12.50;100.00
33404;BME280;19751;40.274;18.268;2023-03-21T05:37:32;100981.88;;;12.47;100.00
33404;BME280;19751;40.274;18.268;2023-03-21T05:39:57;100982.91;;;12.46;100.00
33404;BME280;19751;40.274;18.268;2023-03-21T05:42:24;100984.13;;;12.43;100.00
33404;BME280;19751;40.274;18.268;2023-03-21T05:44:50;100979.56;;;12.43;100.00
33404;BME280;19751;40.274;18.268;2023-03-21T05:47:16;100980.22;;;12.46;100.00
33404;BME280;19751;40.274;18.268;2023-03-21T05:49:43;100954.25;;;12.44;100.00
33404;BME280;19751;40.274;18.268;2023-03-21T05:52:09;100946.91;;;12.38;100.00
33404;BME280;19751;40.274;18.268;2023-03-21T05:54:35;100954.13;;;12.31;100.00
33404;BME280;19751;40.274;18.268;2023-03-21T05:57:01;100946.66;;;12.33;100.00
33404;BME280;19751;40.274;18.268;2023-03-21T05:59:27;100947.13;;;12.37;100.00
33404;BME280;19751;40.274;18.268;2023-03-21T06:01:52;100948.56;;;12.39;100.00
33404;BME280;19751;40.274;18.268;2023-03-21T06:04:18;100946.91;;;12.38;100.00
33404;BME280;19751;40.274;18.268;2023-03-21T06:06:43;100944.22;;;12.38;100.00
33404;BME280;19751;40.274;18.268;2023-03-21T06:09:09;100937.97;;;12.38;100.00
33404;BME280;19751;40.274;18.268;2023-03-21T06:11:36;100934.66;;;12.36;100.00
33404;BME280;19751;40.274;18.268;2023-03-21T06:14:02;100948.31;;;12.34;100.00
33404;BME280;19751;40.274;18.268;2023-03-21T06:16:27;100942.47;;;12.31;100.00
33404;BME280;19751;40.274;18.268;2023-03-21T06:18:54;100941.41;;;12.25;100.00
33404;BME280;19751;40.274;18.268;2023-03-21T06:21:20;100946.16;;;12.23;100.00
33404;BME280;19751;40.274;18.268;2023-03-21T06:23:46;100938.63;;;12.18;100.00
33404;BME280;19751;40.274;18.268;2023-03-21T06:26:12;100943.59;;;12.15;100.00
33404;BME280;19751;40.274;18.268;2023-03-21T06:28:38;100945.66;;;12.13;100.00
33404;BME280;19751;40.274;18.268;2023-03-21T06:31:04;100945.41;;;12.08;100.00
33404;BME280;19751;40.274;18.268;2023-03-21T06:33:29;100946.88;;;12.10;100.00
33404;BME280;19751;40.274;18.268;2023-03-21T06:35:57;100952.94;;;12.12;100.00
33404;BME280;19751;40.274;18.268;2023-03-21T06:38:23;100947.31;;;12.14;100.00
33404;BME280;19751;40.274;18.268;2023-03-21T06:40:49;100941.09;;;12.13;100.00
33404;BME280;19751;40.274;18.268;2023-03-21T06:43:15;100948.81;;;12.16;100.00
33404;BME280;19751;40.274;18.268;2023-03-21T06:45:42;100952.78;;;12.21;100.00
33404;BME280;19751;40.274;18.268;2023-03-21T06:48:08;100956.13;;;12.23;100.00
33404;BME280;19751;40.274;18.268;2023-03-21T06:50:34;100953.41;;;12.23;100.00
33404;BME280;19751;40.274;18.268;2023-03-21T06:52:59;100953.88;;;12.26;100.00
33404;BME280;19751;40.274;18.268;2023-03-21T06:55:26;100955.81;;;12.32;100.00
33404;BME280;19751;40.274;18.268;2023-03-21T06:57:54;100959.13;;;12.34;100.00
33404;BME280;19751;40.274;18.268;2023-03-21T07:00:20;100957.25;;;12.35;100.00
33404;BME280;19751;40.274;18.268;2023-03-21T07:02:46;100963.31;;;12.37;100.00
33404;BME280;19751;40.274;18.268;2023-03-21T07:05:12;100975.41;;;12.41;100.00
33404;BME280;19751;40.274;18.268;2023-03-21T07:07:38;100959.81;;;12.43;100.00
33404;BME280;19751;40.274;18.268;2023-03-21T07:10:05;100969.59;;;12.44;100.00
33404;BME280;19751;40.274;18.268;2023-03-21T07:12:32;100969.41;;;12.46;100.00
33404;BME280;19751;40.274;18.268;2023-03-21T07:15:00;100965.28;;;12.50;100.00
33404;BME280;19751;40.274;18.268;2023-03-21T07:17:26;100965.91;;;12.52;100.00
33404;BME280;19751;40.274;18.268;2023-03-21T07:19:51;100960.94;;;12.55;100.00
33404;BME280;19751;40.274;18.268;2023-03-21T07:22:17;100959.72;;;12.58;100.00
33404;BME280;19751;40.274;18.268;2023-03-21T07:24:42;100955.16;;;12.58;100.00
33404;BME280;19751;40.274;18.268;2023-03-21T07:27:09;100961.41;;;12.59;100.00
33404;BME280;19751;40.274;18.268;2023-03-21T07:29:35;100965.75;;;12.60;100.00
33404;BME280;19751;40.274;18.268;2023-03-21T07:32:00;100970.34;;;12.59;100.00
33404;BME280;19751;40.274;18.268;2023-03-21T07:34:26;100973.88;;;12.60;100.00
33404;BME280;19751;40.274;18.268;2023-03-21T07:36:55;100972.19;;;12.59;100.00
33404;BME280;19751;40.274;18.268;2023-03-21T07:39:21;100974.69;;;12.60;100.00
33404;BME280;19751;40.274;18.268;2023-03-21T07:41:48;100975.97;;;12.64;100.00
33404;BME280;19751;40.274;18.268;2023-03-21T07:44:13;100978.69;;;12.64;100.00
33404;BME280;19751;40.274;18.268;2023-03-21T07:46:39;100974.31;;;12.63;100.00
33404;BME280;19751;40.274;18.268;2023-03-21T07:49:05;100977.22;;;12.62;100.00
33404;BME280;19751;40.274;18.268;2023-03-21T07:51:33;100978.88;;;12.63;100.00
33404;BME280;19751;40.274;18.268;2023-03-21T07:54:00;100976.84;;;12.65;100.00
33404;BME280;19751;40.274;18.268;2023-03-21T07:56:26;100974.75;;;12.67;100.00
33404;BME280;19751;40.274;18.268;2023-03-21T07:58:52;100973.72;;;12.68;100.00
33404;BME280;19751;40.274;18.268;2023-03-21T08:01:18;100961.91;;;12.69;100.00
33404;BME280;19751;40.274;18.268;2023-03-21T08:03:44;100971.84;;;12.68;100.00
33404;BME280;19751;40.274;18.268;2023-03-21T08:06:09;100967.31;;;12.69;100.00
33404;BME280;19751;40.274;18.268;2023-03-21T08:08:35;100965.00;;;12.73;100.00
33404;BME280;19751;40.274;18.268;2023-03-21T08:11:03;100963.78;;;12.75;100.00
33404;BME280;19751;40.274;18.268;2023-03-21T08:13:28;100963.19;;;12.80;100.00
33404;BME280;19751;40.274;18.268;2023-03-21T08:15:54;100954.69;;;12.83;100.00
33404;BME280;19751;40.274;18.268;2023-03-21T08:18:19;100959.88;;;12.84;100.00
33404;BME280;19751;40.274;18.268;2023-03-21T08:20:50;100954.31;;;12.86;100.00
33404;BME280;19751;40.274;18.268;2023-03-21T08:23:16;100955.75;;;12.82;100.00
33404;BME280;19751;40.274;18.268;2023-03-21T08:25:42;100952.16;;;12.81;100.00
33404;BME280;19751;40.274;18.268;2023-03-21T08:28:07;100956.56;;;12.82;100.00
33404;BME280;19751;40.274;18.268;2023-03-21T08:30:33;100955.28;;;12.78;100.00
33404;BME280;19751;40.274;18.268;2023-03-21T08:32:58;100959.66;;;12.79;100.00
33404;BME280;19751;40.274;18.268;2023-03-21T08:35:24;100944.28;;;12.80;100.00
33404;BME280;19751;40.274;18.268;2023-03-21T08:37:50;100942.84;;;12.84;100.00
33404;BME280;19751;40.274;18.268;2023-03-21T08:40:17;100941.63;;;12.86;100.00
33404;BME280;19751;40.274;18.268;2023-03-21T08:42:43;100940.38;;;12.89;100.00
33404;BME280;19751;40.274;18.268;2023-03-21T08:45:10;100944.16;;;12.94;100.00
33404;BME280;19751;40.274;18.268;2023-03-21T08:47:36;100941.91;;;12.98;100.00
33404;BME280;19751;40.274;18.268;2023-03-21T08:50:03;100945.00;;;13.02;100.00
33404;BME280;19751;40.274;18.268;2023-03-21T08:52:31;100944.63;;;13.05;100.00
33404;BME280;19751;40.274;18.268;2023-03-21T08:54:56;100949.63;;;13.08;100.00
33404;BME280;19751;40.274;18.268;2023-03-21T08:57:22;100940.25;;;13.10;100.00
33404;BME280;19751;40.274;18.268;2023-03-21T08:59:47;100941.75;;;13.13;100.00
33404;BME280;19751;40.274;18.268;2023-03-21T09:02:14;100946.94;;;13.14;100.00
33404;BME280;19751;40.274;18.268;2023-03-21T09:04:40;100942.56;;;13.13;100.00
33404;BME280;19751;40.274;18.268;2023-03-21T09:07:08;100944.66;;;13.11;100.00
33404;BME280;19751;40.274;18.268;2023-03-21T09:09:35;100933.41;;;13.14;100.00
33404;BME280;19751;40.274;18.268;2023-03-21T09:12:01;100939.69;;;13.15;100.00
33404;BME280;19751;40.274;18.268;2023-03-21T09:14:27;100939.69;;;13.15;100.00
33404;BME280;19751;40.274;18.268;2023-03-21T09:16:53;100945.28;;;13.13;100.00
33404;BME280;19751;40.274;18.268;2023-03-21T09:19:18;100948.38;;;13.10;100.00
33404;BME280;19751;40.274;18.268;2023-03-21T09:21:45;100942.34;;;13.08;100.00
33404;BME280;19751;40.274;18.268;2023-03-21T09:24:10;100942.56;;;13.07;100.00
33404;BME280;19751;40.274;18.268;2023-03-21T09:26:37;100940.25;;;13.04;100.00
33404;BME280;19751;40.274;18.268;2023-03-21T09:29:03;100942.97;;;13.04;100.00
33404;BME280;19751;40.274;18.268;2023-03-21T09:31:30;100943.56;;;13.06;100.00
33404;BME280;19751;40.274;18.268;2023-03-21T09:33:56;100935.91;;;13.09;100.00
33404;BME280;19751;40.274;18.268;2023-03-21T09:36:23;100929.88;;;13.14;100.00
33404;BME280;19751;40.274;18.268;2023-03-21T09:38:52;100920.75;;;13.22;100.00
33404;BME280;19751;40.274;18.268;2023-03-21T09:44:53;100930.22;;;13.32;100.00
33404;BME280;19751;40.274;18.268;2023-03-21T09:47:25;100922.31;;;13.37;100.00
33404;BME280;19751;40.274;18.268;2023-03-21T09:50:06;100922.31;;;13.37;100.00
33404;BME280;19751;40.274;18.268;2023-03-21T09:55:19;100923.34;;;13.43;100.00
33404;BME280;19751;40.274;18.268;2023-03-21T09:57:50;100917.34;;;13.41;100.00
33404;BME280;19751;40.274;18.268;2023-03-21T10:00:25;100908.81;;;13.44;100.00
33404;BME280;19751;40.274;18.268;2023-03-21T10:02:54;100904.84;;;13.47;100.00
33404;BME280;19751;40.274;18.268;2023-03-21T10:05:26;100908.81;;;13.44;100.00
33404;BME280;19751;40.274;18.268;2023-03-21T10:10:47;100900.47;;;13.46;100.00
33404;BME280;19751;40.274;18.268;2023-03-21T10:13:21;100900.69;;;13.44;100.00
33404;BME280;19751;40.274;18.268;2023-03-21T10:15:49;100899.66;;;13.45;100.00
33404;BME280;19751;40.274;18.268;2023-03-21T10:18:26;100899.84;;;13.43;100.00
33404;BME280;19751;40.274;18.268;2023-03-21T10:20:53;100889.03;;;13.50;100.00
33404;BME280;19751;40.274;18.268;2023-03-21T10:23:21;100902.34;;;13.52;100.00
33404;BME280;19751;40.274;18.268;2023-03-21T10:25:54;100895.50;;;13.49;100.00
33404;BME280;19751;40.274;18.268;2023-03-21T10:28:26;100888.22;;;13.50;100.00
33404;BME280;19751;40.274;18.268;2023-03-21T10:30:56;100898.81;;;13.51;100.00
33404;BME280;19751;40.274;18.268;2023-03-21T10:33:30;100899.66;;;13.52;100.00
33404;BME280;19751;40.274;18.268;2023-03-21T10:36:09;100899.88;;;13.50;100.00
33404;BME280;19751;40.274;18.268;2023-03-21T10:38:39;100895.69;;;13.48;100.00
33404;BME280;19751;40.274;18.268;2023-03-21T10:41:09;100899.88;;;13.50;100.00
33404;BME280;19751;40.274;18.268;2023-03-21T10:43:37;100891.97;;;13.49;100.00
33404;BME280;19751;40.274;18.268;2023-03-21T10:46:19;100888.44;;;13.48;100.00
33404;BME280;19751;40.274;18.268;2023-03-21T10:48:52;100883.41;;;13.45;100.00
33404;BME280;19751;40.274;18.268;2023-03-21T10:51:26;100882.78;;;13.43;100.00
33404;BME280;19751;40.274;18.268;2023-03-21T10:54:03;100873.22;;;13.40;100.00
33404;BME280;19751;40.274;18.268;2023-03-21T10:56:35;100879.44;;;13.41;100.00
33404;BME280;19751;40.274;18.268;2023-03-21T10:59:01;100880.50;;;13.40;100.00
33404;BME280;19751;40.274;18.268;2023-03-21T11:01:40;100873.63;;;13.37;100.00
33404;BME280;19751;40.274;18.268;2023-03-21T11:04:11;100870.69;;;13.39;100.00
33404;BME280;19751;40.274;18.268;2023-03-21T11:06:41;100870.06;;;13.37;100.00
33404;BME280;19751;40.274;18.268;2023-03-21T11:09:14;100866.31;;;13.31;100.00
33404;BME280;19751;40.274;18.268;2023-03-21T11:12:09;100876.50;;;13.29;100.00
33404;BME280;19751;40.274;18.268;2023-03-21T11:14:43;100869.38;;;13.22;100.00
33404;BME280;19751;40.274;18.268;2023-03-21T11:19:47;100872.06;;;13.15;100.00
33404;BME280;19751;40.274;18.268;2023-03-21T11:22:14;100868.09;;;13.17;100.00
33404;BME280;19751;40.274;18.268;2023-03-21T11:24:40;100865.84;;;13.21;100.00
33404;BME280;19751;40.274;18.268;2023-03-21T11:27:09;100864.44;;;13.25;100.00
33404;BME280;19751;40.274;18.268;2023-03-21T11:29:38;100863.59;;;13.25;100.00
33404;BME280;19751;40.274;18.268;2023-03-21T11:32:25;100864.22;;;13.27;100.00
33404;BME280;19751;40.274;18.268;2023-03-21T11:35:17;100860.06;;;13.31;100.00
33404;BME280;19751;40.274;18.268;2023-03-21T11:37:48;100850.72;;;13.33;100.00
33404;BME280;19751;40.274;18.268;2023-03-21T11:40:20;100853.00;;;13.36;100.00
33404;BME280;19751;40.274;18.268;2023-03-21T11:42:53;100847.59;;;13.36;100.00
33404;BME280;19751;40.274;18.268;2023-03-21T11:45:22;100856.94;;;13.34;100.00
33404;BME280;19751;40.274;18.268;2023-03-21T11:47:51;100851.13;;;13.30;100.00
33404;BME280;19751;40.274;18.268;2023-03-21T11:50:20;100855.06;;;13.34;100.00
33404;BME280;19751;40.274;18.268;2023-03-21T11:55:38;100842.00;;;13.45;100.00
33404;BME280;19751;40.274;18.268;2023-03-21T12:01:34;100838.03;;;13.47;100.00
33404;BME280;19751;40.274;18.268;2023-03-21T12:10:00;100838.66;;;13.42;100.00
33404;BME280;19751;40.274;18.268;2023-03-21T12:18:14;100827.81;;;13.42;100.00
33404;BME280;19751;40.274;18.268;2023-03-21T12:21:30;100833.88;;;13.45;100.00
33404;BME280;19751;40.274;18.268;2023-03-21T12:23:49;100828.03;;;13.41;100.00
33404;BME280;19751;40.274;18.268;2023-03-21T12:26:27;100817.84;;;13.36;100.00
33404;BME280;19751;40.274;18.268;2023-03-21T12:29:18;100820.97;;;13.40;100.00
33404;BME280;19751;40.274;18.268;2023-03-21T12:39:39;100802.88;;;13.60;100.00
33404;BME280;19751;40.274;18.268;2023-03-21T12:45:09;100804.75;;;13.73;100.00
33404;BME280;19751;40.274;18.268;2023-03-21T12:47:40;100806.19;;;13.76;100.00
33404;BME280;19751;40.274;18.268;2023-03-21T12:50:14;100803.31;;;13.77;100.00
33404;BME280;19751;40.274;18.268;2023-03-21T12:52:46;100802.44;;;13.77;100.00
33404;BME280;19751;40.274;18.268;2023-03-21T12:55:33;100800.16;;;13.80;100.00
33404;BME280;19751;40.274;18.268;2023-03-21T13:00:43;100801.84;;;13.81;100.00
33404;BME280;19751;40.274;18.268;2023-03-21T13:03:17;100793.31;;;13.78;100.00
33404;BME280;19751;40.274;18.268;2023-03-21T13:06:05;100796.00;;;13.78;100.00
33404;BME280;19751;40.274;18.268;2023-03-21T13:08:45;100793.31;;;13.78;100.00
33404;BME280;19751;40.274;18.268;2023-03-21T13:11:15;100787.88;;;13.78;100.00
33404;BME280;19751;40.274;18.268;2023-03-21T13:13:52;100788.31;;;13.81;100.00
33404;BME280;19751;40.274;18.268;2023-03-21T13:16:29;100785.97;;;13.85;100.00
33404;BME280;19751;40.274;18.268;2023-03-21T13:27:04;100776.63;;;13.87;100.00
33404;BME280;19751;40.274;18.268;2023-03-21T13:29:50;100777.44;;;13.88;100.00
33404;BME280;19751;40.274;18.268;2023-03-21T13:35:16;100772.88;;;13.88;100.00
33404;BME280;19751;40.274;18.268;2023-03-21T13:37:42;100774.75;;;13.88;100.00
33404;BME280;19751;40.274;18.268;2023-03-21T13:40:25;100770.38;;;13.87;100.00
33404;BME280;19751;40.274;18.268;2023-03-21T13:42:54;100775.78;;;13.87;100.00
33404;BME280;19751;40.274;18.268;2023-03-21T13:45:57;100766.66;;;13.81;100.00
33404;BME280;19751;40.274;18.268;2023-03-21T13:48:39;100768.09;;;13.71;100.00
33404;BME280;19751;40.274;18.268;2023-03-21T13:51:07;100764.16;;;13.66;100.00
33404;BME280;19751;40.274;18.268;2023-03-21T13:53:41;100766.03;;;13.66;100.00
33404;BME280;19751;40.274;18.268;2023-03-21T13:56:21;100760.84;;;13.64;100.00
33404;BME280;19751;40.274;18.268;2023-03-21T14:01:38;100765.38;;;13.64;100.00
33404;BME280;19751;40.274;18.268;2023-03-21T14:04:12;100760.19;;;13.62;100.00
33404;BME280;19751;40.274;18.268;2023-03-21T14:09:38;100756.88;;;13.54;100.00
33404;BME280;19751;40.274;18.268;2023-03-21T14:12:09;100750.59;;;13.60;100.00
33404;BME280;19751;40.274;18.268;2023-03-21T14:14:45;100755.59;;;13.63;100.00